SBSM/RIA METAR and TAF weather

Enter ICAO airport designator
Station Type Date Time Source
SBSM METAR 2019/05/19 20:00 UTC NOAA

SBSM 192000Z VRB02KT CAVOK 23/20 Q1015


Station Type Date Time Source
SBSM Decoded METAR 2019/05/19 20:00 UTC NOAA

Santa Maria Aero-Porto , Brazil (SBSM) 29-43S 053-42W
May 19, 2019 - 04:00 PM EDT / 2019.05.19 2000 UTC
Wind: Variable at 2 MPH (2 KT):0
Visibility: greater than 7 mile(s):0
Temperature: 73 F (23 C)
Dew Point: 68 F (20 C)
Relative Humidity: 83%
Pressure (altimeter): 29.97 in. Hg (1015 hPa)
ob: SBSM 192000Z VRB02KT CAVOK 23/20 Q1015
cycle: 20

Station Type Date Time Source
SBSM TAF 2019/05/19 18:33 UTC NOAA

TAF SBSM 191530Z 1918/2006 05006KT CAVOK TX28/1918Z TN19/2005Z
RMK PEB

Example: see airport list